sensor_id;sensor_type;location;lat;lon;timestamp;pressure;altitude;pressure_sealevel;temperature;humidity
77450;BME280;66536;53.150;18.172;2023-03-23T00:04:05;100467.64;;;9.74;76.55
77450;BME280;66536;53.150;18.172;2023-03-23T00:08:06;100465.31;;;9.65;76.78
77450;BME280;66536;53.150;18.172;2023-03-23T00:12:01;100454.04;;;9.55;76.80
77450;BME280;66536;53.150;18.172;2023-03-23T00:16:17;100458.53;;;9.46;76.84
77450;BME280;66536;53.150;18.172;2023-03-23T00:23:41;100459.81;;;9.39;77.00
77450;BME280;66536;53.150;18.172;2023-03-23T00:46:55;100445.00;;;9.99;75.51
77450;BME280;66536;53.150;18.172;2023-03-23T00:50:47;100441.98;;;9.97;75.59
77450;BME280;66536;53.150;18.172;2023-03-23T00:54:37;100426.41;;;9.94;75.65
77450;BME280;66536;53.150;18.172;2023-03-23T00:57:57;100422.42;;;9.89;75.60
77450;BME280;66536;53.150;18.172;2023-03-23T01:01:10;100425.08;;;9.84;75.84
77450;BME280;66536;53.150;18.172;2023-03-23T01:05:40;100422.80;;;9.76;76.00
77450;BME280;66536;53.150;18.172;2023-03-23T01:13:06;100428.66;;;9.68;75.99
77450;BME280;66536;53.150;18.172;2023-03-23T04:23:52;100301.63;;;7.04;78.75
77450;BME280;66536;53.150;18.172;2023-03-23T04:26:48;100301.14;;;7.00;78.80
77450;BME280;66536;53.150;18.172;2023-03-23T04:29:37;100302.14;;;6.92;78.99
77450;BME280;66536;53.150;18.172;2023-03-23T04:32:48;100305.84;;;6.87;79.31
77450;BME280;66536;53.150;18.172;2023-03-23T04:35:54;100305.10;;;6.82;79.27
77450;BME280;66536;53.150;18.172;2023-03-23T04:39:08;100299.77;;;6.76;79.25
77450;BME280;66536;53.150;18.172;2023-03-23T04:42:06;100294.54;;;6.74;79.48
77450;BME280;66536;53.150;18.172;2023-03-23T04:45:44;100288.58;;;6.77;79.31
77450;BME280;66536;53.150;18.172;2023-03-23T04:48:59;100289.64;;;6.82;79.40
77450;BME280;66536;53.150;18.172;2023-03-23T04:52:51;100291.36;;;6.88;79.48
77450;BME280;66536;53.150;18.172;2023-03-23T04:57:29;100282.06;;;6.88;79.60
77450;BME280;66536;53.150;18.172;2023-03-23T05:16:43;100270.20;;;7.89;78.26
77450;BME280;66536;53.150;18.172;2023-03-23T05:25:22;100255.63;;;8.24;78.85
77450;BME280;66536;53.150;18.172;2023-03-23T06:05:03;100215.40;;;10.31;74.93
77450;BME280;66536;53.150;18.172;2023-03-23T06:07:51;100210.67;;;10.41;74.72
77450;BME280;66536;53.150;18.172;2023-03-23T06:19:08;100218.83;;;10.91;73.62
77450;BME280;66536;53.150;18.172;2023-03-23T06:22:50;100215.02;;;10.96;73.29
77450;BME280;66536;53.150;18.172;2023-03-23T06:26:11;100203.35;;;11.03;73.24
77450;BME280;66536;53.150;18.172;2023-03-23T06:28:43;100189.73;;;11.07;72.59
77450;BME280;66536;53.150;18.172;2023-03-23T06:31:10;100189.29;;;11.07;72.56
77450;BME280;66536;53.150;18.172;2023-03-23T06:33:38;100201.04;;;11.10;72.26
77450;BME280;66536;53.150;18.172;2023-03-23T06:36:17;100210.71;;;11.21;72.43
77450;BME280;66536;53.150;18.172;2023-03-23T06:38:50;100216.59;;;11.37;72.02
77450;BME280;66536;53.150;18.172;2023-03-23T06:41:20;100204.44;;;11.52;71.75
77450;BME280;66536;53.150;18.172;2023-03-23T06:43:47;100203.74;;;11.63;71.49
77450;BME280;66536;53.150;18.172;2023-03-23T06:46:17;100198.27;;;11.75;71.14
77450;BME280;66536;53.150;18.172;2023-03-23T06:49:03;100205.35;;;11.90;70.92
77450;BME280;66536;53.150;18.172;2023-03-23T06:51:58;100201.14;;;12.06;70.34
77450;BME280;66536;53.150;18.172;2023-03-23T06:54:26;100205.80;;;12.23;70.33
77450;BME280;66536;53.150;18.172;2023-03-23T06:56:53;100209.18;;;12.33;69.75
77450;BME280;66536;53.150;18.172;2023-03-23T06:59:21;100212.80;;;12.40;69.52
77450;BME280;66536;53.150;18.172;2023-03-23T07:01:47;100215.66;;;12.43;69.11
77450;BME280;66536;53.150;18.172;2023-03-23T07:04:14;100209.85;;;12.48;69.11
77450;BME280;66536;53.150;18.172;2023-03-23T07:06:49;100212.21;;;12.55;69.00
77450;BME280;66536;53.150;18.172;2023-03-23T07:09:15;100209.83;;;12.57;68.80
77450;BME280;66536;53.150;18.172;2023-03-23T07:11:42;100203.98;;;12.56;68.80
77450;BME280;66536;53.150;18.172;2023-03-23T07:14:19;100214.19;;;12.52;68.36
77450;BME280;66536;53.150;18.172;2023-03-23T07:16:53;100220.21;;;12.47;68.68
77450;BME280;66536;53.150;18.172;2023-03-23T07:22:34;100214.60;;;12.44;67.89
77450;BME280;66536;53.150;18.172;2023-03-23T07:25:29;100202.16;;;12.53;67.48
77450;BME280;66536;53.150;18.172;2023-03-23T07:28:20;100185.03;;;12.69;67.24
77450;BME280;66536;53.150;18.172;2023-03-23T07:30:46;100181.54;;;12.88;67.13
77450;BME280;66536;53.150;18.172;2023-03-23T07:33:13;100184.66;;;13.14;66.37
77450;BME280;66536;53.150;18.172;2023-03-23T07:35:39;100179.05;;;13.44;65.84
77450;BME280;66536;53.150;18.172;2023-03-23T07:38:26;100178.47;;;13.81;65.46
77450;BME280;66536;53.150;18.172;2023-03-23T07:40:53;100187.29;;;14.14;64.74
77450;BME280;66536;53.150;18.172;2023-03-23T07:43:20;100187.09;;;14.42;64.13
77450;BME280;66536;53.150;18.172;2023-03-23T07:45:57;100188.89;;;14.63;63.53
77450;BME280;66536;53.150;18.172;2023-03-23T07:48:28;100190.95;;;14.80;62.81
77450;BME280;66536;53.150;18.172;2023-03-23T07:50:55;100192.48;;;14.91;61.39
77450;BME280;66536;53.150;18.172;2023-03-23T07:53:46;100188.92;;;14.95;61.65
77450;BME280;66536;53.150;18.172;2023-03-23T07:56:44;100183.11;;;14.99;60.54
77450;BME280;66536;53.150;18.172;2023-03-23T07:59:17;100185.99;;;15.06;59.54
77450;BME280;66536;53.150;18.172;2023-03-23T08:01:43;100184.63;;;15.17;58.08
77450;BME280;66536;53.150;18.172;2023-03-23T08:04:22;100190.41;;;15.18;57.02
77450;BME280;66536;53.150;18.172;2023-03-23T08:06:58;100197.48;;;15.15;55.23
77450;BME280;66536;53.150;18.172;2023-03-23T08:09:43;100199.09;;;15.00;55.07
77450;BME280;66536;53.150;18.172;2023-03-23T08:12:24;100198.79;;;14.96;56.57
77450;BME280;66536;53.150;18.172;2023-03-23T08:15:00;100193.71;;;15.01;56.12
77450;BME280;66536;53.150;18.172;2023-03-23T08:17:59;100185.55;;;15.09;55.25
77450;BME280;66536;53.150;18.172;2023-03-23T08:21:23;100196.86;;;15.26;54.97
77450;BME280;66536;53.150;18.172;2023-03-23T08:24:30;100200.30;;;15.38;53.99
77450;BME280;66536;53.150;18.172;2023-03-23T08:27:08;100205.17;;;15.44;52.75
77450;BME280;66536;53.150;18.172;2023-03-23T08:29:45;100197.97;;;15.43;52.98
77450;BME280;66536;53.150;18.172;2023-03-23T08:32:33;100193.18;;;15.40;53.60
77450;BME280;66536;53.150;18.172;2023-03-23T08:35:11;100194.01;;;15.22;52.39
77450;BME280;66536;53.150;18.172;2023-03-23T08:37:50;100189.50;;;15.13;52.87
77450;BME280;66536;53.150;18.172;2023-03-23T08:40:37;100197.81;;;15.21;53.33
77450;BME280;66536;53.150;18.172;2023-03-23T08:43:23;100210.92;;;15.31;52.76
77450;BME280;66536;53.150;18.172;2023-03-23T08:46:10;100199.33;;;15.44;52.46
77450;BME280;66536;53.150;18.172;2023-03-23T08:49:01;100203.47;;;15.61;52.18
77450;BME280;66536;53.150;18.172;2023-03-23T08:51:37;100191.30;;;15.75;51.78
77450;BME280;66536;53.150;18.172;2023-03-23T08:54:28;100208.52;;;15.80;51.87
77450;BME280;66536;53.150;18.172;2023-03-23T08:57:15;100201.87;;;15.79;52.00
77450;BME280;66536;53.150;18.172;2023-03-23T08:59:58;100202.63;;;15.73;51.71
77450;BME280;66536;53.150;18.172;2023-03-23T09:02:58;100192.43;;;15.81;51.49
77450;BME280;66536;53.150;18.172;2023-03-23T09:05:38;100199.11;;;15.97;51.27
77450;BME280;66536;53.150;18.172;2023-03-23T09:08:20;100196.73;;;16.24;51.72
77450;BME280;66536;53.150;18.172;2023-03-23T09:10:47;100201.00;;;16.42;50.22
77450;BME280;66536;53.150;18.172;2023-03-23T09:13:22;100200.73;;;16.62;50.49
77450;BME280;66536;53.150;18.172;2023-03-23T09:15:49;100190.95;;;16.79;49.28
77450;BME280;66536;53.150;18.172;2023-03-23T09:18:38;100197.21;;;16.80;48.63
77450;BME280;66536;53.150;18.172;2023-03-23T09:21:21;100208.93;;;16.79;48.38
77450;BME280;66536;53.150;18.172;2023-03-23T09:23:48;100208.84;;;16.85;48.17
77450;BME280;66536;53.150;18.172;2023-03-23T09:26:21;100215.17;;;16.89;48.59
77450;BME280;66536;53.150;18.172;2023-03-23T09:28:47;100211.04;;;16.86;48.50
77450;BME280;66536;53.150;18.172;2023-03-23T09:31:13;100204.57;;;16.94;48.56
77450;BME280;66536;53.150;18.172;2023-03-23T09:33:49;100201.60;;;17.01;48.33
77450;BME280;66536;53.150;18.172;2023-03-23T09:36:20;100195.12;;;17.02;47.82
77450;BME280;66536;53.150;18.172;2023-03-23T09:38:48;100203.64;;;17.01;48.00
77450;BME280;66536;53.150;18.172;2023-03-23T09:41:36;100205.46;;;16.91;47.36
77450;BME280;66536;53.150;18.172;2023-03-23T09:44:30;100213.41;;;16.73;48.21
77450;BME280;66536;53.150;18.172;2023-03-23T09:47:25;100213.75;;;16.63;48.31
77450;BME280;66536;53.150;18.172;2023-03-23T09:50:09;100223.85;;;16.54;48.24
77450;BME280;66536;53.150;18.172;2023-03-23T09:52:55;100207.02;;;16.31;48.55
77450;BME280;66536;53.150;18.172;2023-03-23T09:55:28;100218.33;;;16.16;49.32
77450;BME280;66536;53.150;18.172;2023-03-23T09:58:01;100217.23;;;16.18;50.01
77450;BME280;66536;53.150;18.172;2023-03-23T10:00:58;100223.55;;;16.15;49.69
77450;BME280;66536;53.150;18.172;2023-03-23T10:03:40;100229.17;;;16.04;49.93
77450;BME280;66536;53.150;18.172;2023-03-23T10:06:10;100221.99;;;15.92;50.38
77450;BME280;66536;53.150;18.172;2023-03-23T10:08:41;100224.02;;;15.75;50.54
77450;BME280;66536;53.150;18.172;2023-03-23T10:11:23;100214.15;;;15.59;50.99
77450;BME280;66536;53.150;18.172;2023-03-23T10:17:12;100227.08;;;15.43;51.91
77450;BME280;66536;53.150;18.172;2023-03-23T10:20:05;100224.56;;;15.43;52.24
77450;BME280;66536;53.150;18.172;2023-03-23T10:22:53;100224.23;;;15.33;52.32
77450;BME280;66536;53.150;18.172;2023-03-23T10:25:24;100231.64;;;15.32;52.58
77450;BME280;66536;53.150;18.172;2023-03-23T10:28:06;100233.67;;;15.40;52.42
77450;BME280;66536;53.150;18.172;2023-03-23T10:30:42;100235.42;;;15.51;51.96
77450;BME280;66536;53.150;18.172;2023-03-23T10:33:16;100237.35;;;15.57;52.20
77450;BME280;66536;53.150;18.172;2023-03-23T10:36:06;100240.15;;;15.61;52.41
77450;BME280;66536;53.150;18.172;2023-03-23T10:38:38;100247.88;;;15.69;53.00
77450;BME280;66536;53.150;18.172;2023-03-23T10:41:12;100246.72;;;15.67;53.25
77450;BME280;66536;53.150;18.172;2023-03-23T10:43:42;100244.41;;;15.63;53.67
77450;BME280;66536;53.150;18.172;2023-03-23T10:46:27;100254.27;;;15.69;53.76
77450;BME280;66536;53.150;18.172;2023-03-23T10:48:57;100257.42;;;15.81;54.29
77450;BME280;66536;53.150;18.172;2023-03-23T10:51:31;100254.33;;;15.79;54.84
77450;BME280;66536;53.150;18.172;2023-03-23T10:54:02;100264.52;;;15.62;54.77
77450;BME280;66536;53.150;18.172;2023-03-23T10:56:36;100265.27;;;15.41;56.00
77450;BME280;66536;53.150;18.172;2023-03-23T10:59:28;100266.41;;;15.10;56.57
77450;BME280;66536;53.150;18.172;2023-03-23T11:02:01;100269.79;;;14.89;57.38
77450;BME280;66536;53.150;18.172;2023-03-23T11:04:33;100274.59;;;14.85;57.66
77450;BME280;66536;53.150;18.172;2023-03-23T11:07:01;100278.16;;;14.79;58.54
77450;BME280;66536;53.150;18.172;2023-03-23T11:09:52;100271.55;;;14.83;58.53
77450;BME280;66536;53.150;18.172;2023-03-23T11:12:22;100267.99;;;14.95;58.88
77450;BME280;66536;53.150;18.172;2023-03-23T11:14:51;100271.41;;;15.10;58.79
77450;BME280;66536;53.150;18.172;2023-03-23T11:17:23;100267.13;;;15.29;59.21
77450;BME280;66536;53.150;18.172;2023-03-23T11:20:11;100265.52;;;15.57;58.29
77450;BME280;66536;53.150;18.172;2023-03-23T11:22:38;100270.45;;;15.87;58.22
77450;BME280;66536;53.150;18.172;2023-03-23T11:25:25;100273.50;;;16.12;57.84
77450;BME280;66536;53.150;18.172;2023-03-23T11:27:52;100271.70;;;16.17;57.30
77450;BME280;66536;53.150;18.172;2023-03-23T11:30:22;100274.98;;;16.22;57.18
77450;BME280;66536;53.150;18.172;2023-03-23T11:32:50;100274.19;;;16.22;57.15
77450;BME280;66536;53.150;18.172;2023-03-23T11:35:38;100273.52;;;16.18;57.27
77450;BME280;66536;53.150;18.172;2023-03-23T11:38:25;100268.89;;;16.18;57.76
77450;BME280;66536;53.150;18.172;2023-03-23T11:40:53;100269.66;;;16.16;56.95
77450;BME280;66536;53.150;18.172;2023-03-23T11:43:25;100262.82;;;16.15;57.17
77450;BME280;66536;53.150;18.172;2023-03-23T11:51:41;100261.69;;;16.09;55.88
77450;BME280;66536;53.150;18.172;2023-03-23T11:54:28;100267.86;;;16.04;56.16
77450;BME280;66536;53.150;18.172;2023-03-23T11:57:16;100264.89;;;15.90;56.19
77450;BME280;66536;53.150;18.172;2023-03-23T11:59:50;100262.38;;;15.87;56.82
77450;BME280;66536;53.150;18.172;2023-03-23T12:02:45;100252.08;;;15.78;55.94
77450;BME280;66536;53.150;18.172;2023-03-23T12:05:44;100259.25;;;15.67;56.65
77450;BME280;66536;53.150;18.172;2023-03-23T12:08:48;100257.95;;;15.74;56.75
77450;BME280;66536;53.150;18.172;2023-03-23T12:11:53;100258.42;;;15.85;56.35
77450;BME280;66536;53.150;18.172;2023-03-23T12:14:41;100254.34;;;15.81;56.22
77450;BME280;66536;53.150;18.172;2023-03-23T12:17:33;100252.77;;;15.68;56.26
77450;BME280;66536;53.150;18.172;2023-03-23T12:20:15;100249.92;;;15.56;56.73
77450;BME280;66536;53.150;18.172;2023-03-23T12:28:33;100251.82;;;15.93;56.06
77450;BME280;66536;53.150;18.172;2023-03-23T12:50:20;100249.37;;;16.02;55.93
77450;BME280;66536;53.150;18.172;2023-03-23T13:11:35;100243.50;;;15.55;56.55
77450;BME280;66536;53.150;18.172;2023-03-23T13:17:22;100240.08;;;15.72;56.14
77450;BME280;66536;53.150;18.172;2023-03-23T13:25:28;100238.59;;;15.75;55.75
77450;BME280;66536;53.150;18.172;2023-03-23T13:29:23;100239.80;;;15.92;55.51
77450;BME280;66536;53.150;18.172;2023-03-23T13:32:36;100240.95;;;16.07;55.09
77450;BME280;66536;53.150;18.172;2023-03-23T13:35:40;100239.98;;;16.11;54.66
77450;BME280;66536;53.150;18.172;2023-03-23T13:46:08;100245.17;;;16.16;54.45
77450;BME280;66536;53.150;18.172;2023-03-23T13:48:48;100241.49;;;16.13;54.01
77450;BME280;66536;53.150;18.172;2023-03-23T13:51:26;100243.25;;;16.09;54.42
77450;BME280;66536;53.150;18.172;2023-03-23T13:54:19;100238.58;;;16.05;54.17
77450;BME280;66536;53.150;18.172;2023-03-23T13:56:58;100240.54;;;16.01;54.02
77450;BME280;66536;53.150;18.172;2023-03-23T13:59:35;100233.20;;;16.03;53.92
77450;BME280;66536;53.150;18.172;2023-03-23T14:04:48;100229.34;;;16.05;53.86
77450;BME280;66536;53.150;18.172;2023-03-23T14:07:17;100229.92;;;16.07;53.91
77450;BME280;66536;53.150;18.172;2023-03-23T14:09:45;100228.84;;;16.10;53.89
77450;BME280;66536;53.150;18.172;2023-03-23T14:12:38;100230.63;;;16.13;53.95
77450;BME280;66536;53.150;18.172;2023-03-23T14:21:20;100241.59;;;16.11;54.23
77450;BME280;66536;53.150;18.172;2023-03-23T14:33:14;100228.67;;;15.91;55.32
77450;BME280;66536;53.150;18.172;2023-03-23T14:35:49;100231.48;;;15.88;55.53
77450;BME280;66536;53.150;18.172;2023-03-23T14:38:33;100234.98;;;15.76;55.82
77450;BME280;66536;53.150;18.172;2023-03-23T14:41:01;100226.56;;;15.64;56.14
77450;BME280;66536;53.150;18.172;2023-03-23T14:43:28;100229.02;;;15.51;56.43
77450;BME280;66536;53.150;18.172;2023-03-23T14:46:04;100229.96;;;15.40;56.64
77450;BME280;66536;53.150;18.172;2023-03-23T14:48:49;100225.73;;;15.29;57.23
77450;BME280;66536;53.150;18.172;2023-03-23T14:51:22;100228.77;;;15.21;57.18
77450;BME280;66536;53.150;18.172;2023-03-23T14:53:53;100222.45;;;15.19;57.40
77450;BME280;66536;53.150;18.172;2023-03-23T14:56:36;100218.92;;;15.17;57.65
77450;BME280;66536;53.150;18.172;2023-03-23T14:59:06;100216.60;;;15.11;57.93
77450;BME280;66536;53.150;18.172;2023-03-23T15:01:41;100217.11;;;15.05;57.97
77450;BME280;66536;53.150;18.172;2023-03-23T15:04:33;100218.98;;;15.00;58.18
77450;BME280;66536;53.150;18.172;2023-03-23T15:07:14;100222.39;;;14.96;58.40
77450;BME280;66536;53.150;18.172;2023-03-23T15:10:28;100225.91;;;14.93;58.23
77450;BME280;66536;53.150;18.172;2023-03-23T15:13:15;100222.55;;;14.92;58.59
77450;BME280;66536;53.150;18.172;2023-03-23T15:17:09;100225.14;;;14.91;58.54
77450;BME280;66536;53.150;18.172;2023-03-23T15:19:24;100224.81;;;14.88;58.76
77450;BME280;66536;53.150;18.172;2023-03-23T15:22:22;100224.77;;;14.89;58.77
77450;BME280;66536;53.150;18.172;2023-03-23T15:25:17;100224.92;;;14.89;58.71
77450;BME280;66536;53.150;18.172;2023-03-23T15:28:31;100207.10;;;14.88;58.97
77450;BME280;66536;53.150;18.172;2023-03-23T15:31:15;100194.91;;;14.91;59.10
77450;BME280;66536;53.150;18.172;2023-03-23T15:34:18;100204.51;;;14.96;58.99
77450;BME280;66536;53.150;18.172;2023-03-23T15:37:20;100211.98;;;15.11;58.68
77450;BME280;66536;53.150;18.172;2023-03-23T15:39:50;100210.27;;;15.34;58.33
77450;BME280;66536;53.150;18.172;2023-03-23T15:42:33;100204.71;;;15.60;57.74
77450;BME280;66536;53.150;18.172;2023-03-23T15:46:00;100209.36;;;15.61;57.68
77450;BME280;66536;53.150;18.172;2023-03-23T15:48:32;100211.49;;;15.47;57.90
77450;BME280;66536;53.150;18.172;2023-03-23T15:51:01;100215.48;;;15.27;58.06
77450;BME280;66536;53.150;18.172;2023-03-23T15:53:35;100222.82;;;15.08;58.52
77450;BME280;66536;53.150;18.172;2023-03-23T15:56:05;100236.26;;;14.92;58.96
77450;BME280;66536;53.150;18.172;2023-03-23T15:58:37;100241.08;;;14.76;59.35
77450;BME280;66536;53.150;18.172;2023-03-23T16:01:23;100243.70;;;14.62;59.90
77450;BME280;66536;53.150;18.172;2023-03-23T16:03:54;100244.95;;;14.51;59.95
77450;BME280;66536;53.150;18.172;2023-03-23T16:06:23;100239.48;;;14.43;60.39
77450;BME280;66536;53.150;18.172;2023-03-23T16:08:55;100236.39;;;14.36;60.57
77450;BME280;66536;53.150;18.172;2023-03-23T16:11:22;100221.18;;;14.33;60.49
77450;BME280;66536;53.150;18.172;2023-03-23T16:13:57;100223.52;;;14.31;60.82
77450;BME280;66536;53.150;18.172;2023-03-23T16:16:27;100229.11;;;14.29;60.68
77450;BME280;66536;53.150;18.172;2023-03-23T16:18:57;100234.55;;;14.25;60.87
77450;BME280;66536;53.150;18.172;2023-03-23T16:21:23;100234.79;;;14.20;61.22
77450;BME280;66536;53.150;18.172;2023-03-23T16:23:55;100236.51;;;14.16;61.14
77450;BME280;66536;53.150;18.172;2023-03-23T16:26:27;100243.23;;;14.14;61.32
77450;BME280;66536;53.150;18.172;2023-03-23T16:28:54;100247.40;;;14.12;61.54
77450;BME280;66536;53.150;18.172;2023-03-23T16:31:23;100253.75;;;14.13;61.41
77450;BME280;66536;53.150;18.172;2023-03-23T16:33:49;100255.61;;;14.12;62.03
77450;BME280;66536;53.150;18.172;2023-03-23T16:36:17;100248.02;;;14.09;63.28
77450;BME280;66536;53.150;18.172;2023-03-23T16:38:43;100252.79;;;14.00;64.06
77450;BME280;66536;53.150;18.172;2023-03-23T16:41:17;100252.06;;;13.90;64.30
77450;BME280;66536;53.150;18.172;2023-03-23T16:43:45;100250.64;;;13.79;64.66
77450;BME280;66536;53.150;18.172;2023-03-23T16:46:12;100255.91;;;13.73;65.02
77450;BME280;66536;53.150;18.172;2023-03-23T16:48:53;100256.63;;;13.66;65.67
77450;BME280;66536;53.150;18.172;2023-03-23T16:51:53;100268.42;;;13.60;66.17
77450;BME280;66536;53.150;18.172;2023-03-23T16:57:20;100267.79;;;13.22;68.33
77450;BME280;66536;53.150;18.172;2023-03-23T16:59:49;100266.79;;;13.10;67.76
77450;BME280;66536;53.150;18.172;2023-03-23T17:02:17;100265.92;;;13.00;68.70
77450;BME280;66536;53.150;18.172;2023-03-23T17:04:45;100268.77;;;12.92;68.74
77450;BME280;66536;53.150;18.172;2023-03-23T17:07:18;100268.61;;;12.84;69.08
77450;BME280;66536;53.150;18.172;2023-03-23T17:09:51;100273.54;;;12.78;69.31
77450;BME280;66536;53.150;18.172;2023-03-23T17:12:25;100274.67;;;12.73;69.15
77450;BME280;66536;53.150;18.172;2023-03-23T17:14:55;100279.27;;;12.68;68.73
77450;BME280;66536;53.150;18.172;2023-03-23T17:17:24;100280.02;;;12.67;68.86
77450;BME280;66536;53.150;18.172;2023-03-23T17:19:52;100281.26;;;12.65;69.09
77450;BME280;66536;53.150;18.172;2023-03-23T17:22:18;100285.83;;;12.62;69.42
77450;BME280;66536;53.150;18.172;2023-03-23T17:25:05;100283.73;;;12.61;69.62
77450;BME280;66536;53.150;18.172;2023-03-23T17:27:52;100289.18;;;12.58;69.95
77450;BME280;66536;53.150;18.172;2023-03-23T17:30:40;100287.80;;;12.52;69.80
77450;BME280;66536;53.150;18.172;2023-03-23T17:33:07;100286.50;;;12.49;69.38
77450;BME280;66536;53.150;18.172;2023-03-23T17:35:56;100288.94;;;12.49;69.27
77450;BME280;66536;53.150;18.172;2023-03-23T17:39:22;100284.98;;;12.49;69.05
77450;BME280;66536;53.150;18.172;2023-03-23T17:42:06;100281.86;;;12.48;69.04
77450;BME280;66536;53.150;18.172;2023-03-23T17:44:45;100281.63;;;12.47;68.86
77450;BME280;66536;53.150;18.172;2023-03-23T17:47:20;100279.69;;;12.47;68.93
77450;BME280;66536;53.150;18.172;2023-03-23T17:49:49;100277.19;;;12.48;68.84
77450;BME280;66536;53.150;18.172;2023-03-23T17:52:16;100279.76;;;12.49;68.71
77450;BME280;66536;53.150;18.172;2023-03-23T17:54:45;100281.04;;;12.49;68.60
77450;BME280;66536;53.150;18.172;2023-03-23T17:57:16;100288.10;;;12.47;68.59
77450;BME280;66536;53.150;18.172;2023-03-23T17:59:42;100292.45;;;12.43;68.69
77450;BME280;66536;53.150;18.172;2023-03-23T18:02:20;100299.11;;;12.39;68.77
77450;BME280;66536;53.150;18.172;2023-03-23T18:04:56;100294.70;;;12.35;68.92
77450;BME280;66536;53.150;18.172;2023-03-23T18:07:32;100290.52;;;12.31;68.90
77450;BME280;66536;53.150;18.172;2023-03-23T18:10:06;100278.95;;;12.25;68.98
77450;BME280;66536;53.150;18.172;2023-03-23T18:12:58;100286.05;;;12.22;69.11
77450;BME280;66536;53.150;18.172;2023-03-23T18:15:25;100295.24;;;12.20;68.93
77450;BME280;66536;53.150;18.172;2023-03-23T18:17:54;100299.11;;;12.19;69.06
77450;BME280;66536;53.150;18.172;2023-03-23T18:20:21;100302.27;;;12.19;69.09
77450;BME280;66536;53.150;18.172;2023-03-23T18:22:48;100309.61;;;12.19;68.97
77450;BME280;66536;53.150;18.172;2023-03-23T18:25:14;100316.15;;;12.19;68.99
77450;BME280;66536;53.150;18.172;2023-03-23T18:31:14;100318.44;;;12.15;69.10
77450;BME280;66536;53.150;18.172;2023-03-23T18:33:41;100327.11;;;12.12;69.03
77450;BME280;66536;53.150;18.172;2023-03-23T18:36:09;100329.25;;;12.11;69.24
77450;BME280;66536;53.150;18.172;2023-03-23T18:38:37;100324.93;;;12.11;69.06
77450;BME280;66536;53.150;18.172;2023-03-23T18:41:09;100325.22;;;12.12;69.12
77450;BME280;66536;53.150;18.172;2023-03-23T18:43:37;100330.97;;;12.11;68.97
77450;BME280;66536;53.150;18.172;2023-03-23T18:46:05;100328.75;;;12.12;68.99
77450;BME280;66536;53.150;18.172;2023-03-23T18:48:31;100317.09;;;12.13;68.99
77450;BME280;66536;53.150;18.172;2023-03-23T18:51:08;100316.16;;;12.13;68.97
77450;BME280;66536;53.150;18.172;2023-03-23T18:54:29;100309.00;;;12.11;69.09
77450;BME280;66536;53.150;18.172;2023-03-23T18:57:34;100309.33;;;12.11;68.87
77450;BME280;66536;53.150;18.172;2023-03-23T19:00:08;100307.89;;;12.14;68.92
77450;BME280;66536;53.150;18.172;2023-03-23T19:02:36;100313.00;;;12.18;68.69
77450;BME280;66536;53.150;18.172;2023-03-23T19:14:24;100400.38;;;12.39;71.05
77450;BME280;66536;53.150;18.172;2023-03-23T19:16:51;100392.26;;;12.32;71.97
77450;BME280;66536;53.150;18.172;2023-03-23T19:19:18;100396.98;;;12.16;73.13
77450;BME280;66536;53.150;18.172;2023-03-23T19:21:45;100408.73;;;12.01;74.16
77450;BME280;66536;53.150;18.172;2023-03-23T19:24:12;100400.09;;;11.87;74.13
77450;BME280;66536;53.150;18.172;2023-03-23T19:26:42;100387.21;;;11.75;74.46
77450;BME280;66536;53.150;18.172;2023-03-23T19:29:30;100379.74;;;11.67;74.78
77450;BME280;66536;53.150;18.172;2023-03-23T19:32:00;100389.21;;;11.57;74.94
77450;BME280;66536;53.150;18.172;2023-03-23T19:35:09;100391.55;;;11.50;75.40
